Strona główna
METAR-TAF:

METAR-TAF

Lotnisko :

Wittmund, Niemcy

Szerokość geograficzna: 53-33N, Długość geograficzna: 007-40E, wysokość: 8 m

Aktualna obserwacja pogody

Raport powstał 15 minut temu, godzina 06:20 UTC
Wiatr 11 kt od wschód
Temperatura 15°C
Wilgotność 59%
Ciśnienie 1026 hPa
Widzialność 10 km lub więcej
Mało chmury na wysokości 33000 ft

METAR: ETNT 010620Z 08011KT 9999 FEW330 15/07 Q1026 BLU+

czas: 08:35 (06:35 UTC)

Prognoza

Raport powstał 2 godziny i 35 minut temu, godzina 04:00 UTC
Prognoza ważna od 01 godzina 05 UTC do 01 godzina 14 UTC
Wiatr 8 kt od wschodnio-północny wschód
Widzialność 10 km lub więcej
Rozproszone chmury na wysokości 30000 ft
Stopniowe zmiany
od 01 godzina 08 UTC do 01 godzina 10 UTC
Wiatr 12 kt od wschód w porywach dochodzący do 22 kt
Widzialność 10 km lub więcej
Mało chmury na wysokości 30000 ft

TAF: ETNT 010400Z 0105/0114 07008KT 9999 NSW SCT300 BECMG 0108/0110 08012G22KT 9999 NSW FEW300 BY ETGL

Obserwacja i prognoza pogody dla ponad 4000 lotnisk (raport METAR i TAF).

Dostępne stacje oznaczono żółtymi i czerwonymi punktami na mapie.

Najedź kursorem aby zobaczyć nazwę stacji.

Kliknij aby zobaczyć obserwacje i prognozy pogody.

Aby zmienić mapę: kliknij na zielony przycisk z czarnym krzyżykiem, aby powiększyć; na zielony przycisk z myślnikiem, aby pomniejszyć; na zielone strzałki, aby przejść do map sąsiednich.


METAR-TAF: